createdAt,value
2023-05-06T00:02:14.725Z,63.18
2023-05-06T00:07:21.256Z,61.66
2023-05-06T00:12:29.047Z,62.29
2023-05-06T00:17:36.091Z,61.54
2023-05-06T00:22:43.761Z,60.86
2023-05-06T00:27:52.297Z,60.45
2023-05-06T00:32:58.843Z,59.08
2023-05-06T00:38:13.657Z,59.08
2023-05-06T00:43:23.678Z,58.46
2023-05-06T00:48:30.688Z,57.68
2023-05-06T00:53:37.662Z,57.20
2023-05-06T00:58:48.106Z,56.94
2023-05-06T01:03:58.923Z,56.83
2023-05-06T01:09:16.340Z,55.67
2023-05-06T01:14:34.924Z,56.36
2023-05-06T01:19:47.745Z,55.93
2023-05-06T01:24:55.968Z,56.07
2023-05-06T01:30:02.918Z,56.30
2023-05-06T01:35:21.860Z,56.34
2023-05-06T01:40:31.794Z,55.76
2023-05-06T01:45:41.821Z,56.71
2023-05-06T01:50:48.464Z,56.99
2023-05-06T01:55:57.349Z,56.29
2023-05-06T02:01:04.135Z,56.55
2023-05-06T02:06:13.432Z,56.76
2023-05-06T02:11:22.327Z,56.96
2023-05-06T02:16:31.348Z,56.53
2023-05-06T02:21:38.617Z,57.60
2023-05-06T02:26:46.487Z,57.02
2023-05-06T02:31:53.048Z,57.15
2023-05-06T02:36:59.637Z,57.44
2023-05-06T02:42:07.898Z,57.54
2023-05-06T02:47:15.378Z,56.94
2023-05-06T02:52:23.948Z,57.21
2023-05-06T02:57:31.728Z,57.15
2023-05-06T03:02:38.111Z,58.07
2023-05-06T03:07:44.561Z,57.01
2023-05-06T03:12:53.143Z,57.36
2023-05-06T03:18:00.517Z,57.07
2023-05-06T03:23:09.107Z,57.00
2023-05-06T03:28:17.518Z,56.72
2023-05-06T03:33:27.305Z,56.96
2023-05-06T03:38:33.680Z,57.24
2023-05-06T03:43:45.417Z,57.42
2023-05-06T03:48:54.342Z,57.34
2023-05-06T03:54:01.232Z,57.82
2023-05-06T03:59:09.461Z,58.06
2023-05-06T04:04:16.055Z,58.07
2023-05-06T04:09:22.630Z,58.73
2023-05-06T04:14:33.201Z,58.82
2023-05-06T04:19:39.928Z,59.21
2023-05-06T04:24:48.752Z,59.10
2023-05-06T04:29:58.110Z,59.79
2023-05-06T04:35:05.609Z,60.25
2023-05-06T04:40:14.387Z,60.92
2023-05-06T04:45:26.474Z,61.97
2023-05-06T04:50:35.350Z,62.11
2023-05-06T04:55:42.310Z,61.50
2023-05-06T05:00:50.730Z,61.98
2023-05-06T05:05:58.204Z,61.89
2023-05-06T05:11:07.787Z,62.40
2023-05-06T05:16:16.078Z,62.42
2023-05-06T05:21:29.549Z,62.56
2023-05-06T05:26:36.718Z,63.41
2023-05-06T05:31:45.197Z,62.62
2023-05-06T05:36:54.509Z,62.68
2023-05-06T05:42:02.558Z,63.27
2023-05-06T05:47:11.149Z,63.68
2023-05-06T05:52:18.621Z,63.47
2023-05-06T05:57:25.487Z,63.01
2023-05-06T06:02:34.860Z,63.86
2023-05-06T06:07:41.673Z,63.28
2023-05-06T06:12:49.918Z,63.21
2023-05-06T06:18:02.501Z,63.92
2023-05-06T06:23:09.973Z,63.65
2023-05-06T06:28:16.594Z,63.50
2023-05-06T06:33:25.866Z,62.82
2023-05-06T06:38:32.679Z,63.02
2023-05-06T06:43:39.288Z,62.90
2023-05-06T06:49:07.825Z,62.74
2023-05-06T06:54:14.496Z,62.28
2023-05-06T06:59:21.149Z,62.20
2023-05-06T07:04:29.404Z,62.02
2023-05-06T07:09:38.321Z,61.07
2023-05-06T07:14:46.191Z,60.96
2023-05-06T07:19:56.976Z,62.09
2023-05-06T07:25:04.061Z,61.04
2023-05-06T07:30:12.537Z,60.97
2023-05-06T07:35:22.839Z,60.23
2023-05-06T07:40:29.644Z,60.43
2023-05-06T07:45:36.306Z,60.61
2023-05-06T07:50:47.002Z,59.76
2023-05-06T07:55:55.912Z,60.04
2023-05-06T08:01:03.719Z,59.80
2023-05-06T08:06:14.411Z,59.98
2023-05-06T08:11:21.225Z,59.69
2023-05-06T08:16:28.183Z,60.31
2023-05-06T08:21:36.804Z,60.43
2023-05-06T08:26:43.928Z,59.66
2023-05-06T08:31:51.017Z,60.13
2023-05-06T08:36:59.445Z,59.85
2023-05-06T08:42:07.446Z,58.44
2023-05-06T08:47:15.712Z,57.87
2023-05-06T08:52:24.853Z,57.57
2023-05-06T08:57:32.620Z,57.06
2023-05-06T09:02:43.042Z,55.88
2023-05-06T09:07:51.571Z,55.19
2023-05-06T09:12:59.789Z,53.74
2023-05-06T09:18:07.946Z,53.42
2023-05-06T09:23:18.886Z,53.63
2023-05-06T09:28:25.766Z,51.55
2023-05-06T09:33:32.258Z,50.38
2023-05-06T09:38:40.284Z,50.41
2023-05-06T09:43:49.485Z,50.22
2023-05-06T09:48:58.076Z,49.26
2023-05-06T09:54:07.305Z,49.37
2023-05-06T09:59:18.704Z,49.41
2023-05-06T10:04:31.442Z,48.99
2023-05-06T10:09:42.608Z,49.32
2023-05-06T10:14:50.788Z,48.90
2023-05-06T10:20:02.864Z,50.21
2023-05-06T10:25:23.191Z,50.92
2023-05-06T10:30:32.124Z,53.21
2023-05-06T10:35:51.138Z,56.04
2023-05-06T10:41:01.136Z,58.62
2023-05-06T10:46:10.076Z,63.01
2023-05-06T10:51:29.110Z,65.03
2023-05-06T10:56:39.123Z,67.15
2023-05-06T11:01:46.545Z,68.25
2023-05-06T11:06:55.596Z,71.21
2023-05-06T11:12:06.112Z,71.95
2023-05-06T11:17:33.291Z,72.60
2023-05-06T11:22:43.963Z,73.01
2023-05-06T11:27:51.975Z,74.57
2023-05-06T11:33:05.227Z,73.73
2023-05-06T11:38:13.818Z,73.94
2023-05-06T11:43:22.042Z,74.04
2023-05-06T11:48:28.529Z,74.42
2023-05-06T11:53:35.203Z,74.98
2023-05-06T11:58:43.243Z,75.27
2023-05-06T12:03:49.861Z,77.58
2023-05-06T12:08:56.841Z,77.74
2023-05-06T12:14:08.070Z,77.36
2023-05-06T12:19:17.889Z,78.87
2023-05-06T12:24:30.964Z,79.21
2023-05-06T12:29:39.452Z,79.78
2023-05-06T12:34:46.443Z,80.28
2023-05-06T12:39:53.074Z,80.65
2023-05-06T12:45:14.649Z,81.48
2023-05-06T12:50:34.829Z,82.18
2023-05-06T12:55:43.301Z,82.18
2023-05-06T13:00:51.506Z,83.54
2023-05-06T13:05:58.656Z,83.87
2023-05-06T13:11:05.566Z,83.45
2023-05-06T13:16:14.294Z,84.72
2023-05-06T13:21:21.618Z,84.32
2023-05-06T13:26:29.372Z,85.52
2023-05-06T13:31:38.307Z,85.18
2023-05-06T13:36:45.479Z,84.78
2023-05-06T13:41:52.991Z,85.60
2023-05-06T13:47:02.762Z,85.55
2023-05-06T13:52:11.473Z,86.12
2023-05-06T13:57:19.481Z,86.79
2023-05-06T14:02:28.208Z,86.98
2023-05-06T14:07:35.519Z,86.78
2023-05-06T14:12:43.011Z,87.36
2023-05-06T14:17:53.736Z,86.61
2023-05-06T14:23:00.987Z,88.57
2023-05-06T14:28:08.196Z,87.81
2023-05-06T14:33:17.719Z,88.63
2023-05-06T14:38:24.825Z,89.40
2023-05-06T14:43:31.758Z,90.30
2023-05-06T14:48:39.941Z,89.83
2023-05-06T14:53:48.287Z,89.98
2023-05-06T14:58:54.919Z,90.69
2023-05-06T15:04:03.812Z,90.02
2023-05-06T15:09:11.235Z,90.54
2023-05-06T15:14:18.657Z,90.90
2023-05-06T15:19:28.113Z,90.89
2023-05-06T15:24:36.254Z,91.62
2023-05-06T15:29:43.503Z,92.53
2023-05-06T15:34:52.012Z,92.27
2023-05-06T15:39:58.904Z,92.54
2023-05-06T15:45:06.093Z,92.51
2023-05-06T15:50:29.035Z,92.81
2023-05-06T15:55:46.752Z,92.70
2023-05-06T16:01:01.833Z,92.19
2023-05-06T16:06:13.843Z,92.50
2023-05-06T16:11:22.063Z,93.10
2023-05-06T16:16:30.244Z,92.95
2023-05-06T16:21:38.879Z,92.58
2023-05-06T16:26:46.186Z,92.79
2023-05-06T16:31:52.995Z,92.50
2023-05-06T16:37:02.171Z,92.72
2023-05-06T16:42:09.954Z,93.74
2023-05-06T16:47:24.017Z,93.45
2023-05-06T16:52:33.306Z,93.33
2023-05-06T16:57:40.352Z,94.33
2023-05-06T17:02:48.285Z,94.78
2023-05-06T17:07:57.950Z,95.03
2023-05-06T17:13:06.837Z,94.81
2023-05-06T17:18:14.834Z,94.76
2023-05-06T17:23:23.624Z,94.99
2023-05-06T17:28:30.897Z,95.07
2023-05-06T17:33:38.278Z,95.20
2023-05-06T17:38:47.268Z,94.99
2023-05-06T17:43:54.121Z,94.69
2023-05-06T17:49:01.054Z,95.14
2023-05-06T17:54:09.692Z,95.47
2023-05-06T17:59:16.703Z,95.47
2023-05-06T18:04:24.021Z,94.83
2023-05-06T18:09:35.151Z,94.80
2023-05-06T18:14:42.762Z,94.81
2023-05-06T18:19:51.329Z,94.93
2023-05-06T18:25:00.488Z,94.81
2023-05-06T18:30:10.310Z,95.32
2023-05-06T18:35:18.590Z,95.33
2023-05-06T18:40:28.392Z,94.82
2023-05-06T18:45:36.222Z,94.74
2023-05-06T18:50:45.672Z,94.86
2023-05-06T18:55:54.657Z,94.66
2023-05-06T19:01:03.728Z,94.65
2023-05-06T19:06:12.227Z,94.87
2023-05-06T19:11:21.756Z,94.74
2023-05-06T19:16:28.938Z,94.78
2023-05-06T19:21:38.673Z,94.78
2023-05-06T19:26:47.764Z,95.16
2023-05-06T19:31:56.070Z,94.71
2023-05-06T19:37:03.835Z,94.67
2023-05-06T19:42:13.368Z,94.61
2023-05-06T19:47:21.130Z,94.04
2023-05-06T19:52:31.159Z,94.69
2023-05-06T19:57:41.672Z,95.09
2023-05-06T20:02:51.182Z,94.62
2023-05-06T20:08:00.330Z,95.25
2023-05-06T20:13:13.704Z,95.31
2023-05-06T20:18:25.134Z,95.50
2023-05-06T20:23:35.695Z,95.54
2023-05-06T20:28:45.563Z,95.02
2023-05-06T20:33:53.187Z,95.92
2023-05-06T20:39:01.321Z,95.91
2023-05-06T20:44:12.015Z,96.19
2023-05-06T20:49:21.691Z,95.42
2023-05-06T20:54:30.184Z,95.93
2023-05-06T20:59:39.385Z,95.94
2023-05-06T21:04:46.584Z,96.22
2023-05-06T21:09:53.668Z,96.55
2023-05-06T21:15:03.190Z,96.80
2023-05-06T21:20:15.094Z,96.62
2023-05-06T21:25:22.893Z,96.98
2023-05-06T21:30:31.730Z,97.04
2023-05-06T21:35:39.202Z,97.19
2023-05-06T21:40:48.045Z,97.10
2023-05-06T21:45:56.747Z,96.59
2023-05-06T21:51:06.301Z,97.31
2023-05-06T21:56:13.714Z,96.94
2023-05-06T22:01:22.294Z,96.44
2023-05-06T22:06:29.877Z,96.65
2023-05-06T22:11:38.944Z,96.21
2023-05-06T22:16:47.747Z,95.65
2023-05-06T22:21:55.088Z,95.89
2023-05-06T22:27:02.222Z,95.91
2023-05-06T22:32:10.487Z,96.28
2023-05-06T22:37:17.971Z,96.17
2023-05-06T22:42:26.017Z,95.29
2023-05-06T22:47:35.951Z,95.52
2023-05-06T22:52:42.864Z,95.73
2023-05-06T22:57:50.438Z,95.48
2023-05-06T23:02:59.013Z,95.22
2023-05-06T23:08:05.929Z,95.66
2023-05-06T23:13:12.881Z,95.37
2023-05-06T23:18:21.441Z,95.80
2023-05-06T23:23:29.015Z,95.36
2023-05-06T23:28:35.985Z,95.85
2023-05-06T23:33:44.205Z,95.69
2023-05-06T23:38:50.893Z,96.16
2023-05-06T23:43:57.626Z,95.56
2023-05-06T23:49:06.015Z,95.74
2023-05-06T23:54:12.938Z,95.61
2023-05-06T23:59:19.522Z,95.31
